createdAt,value
2016-10-10T00:01:54.895Z,1018.38
2016-10-10T00:06:51.761Z,1018.36
2016-10-10T00:11:48.304Z,1018.31
2016-10-10T00:16:45.585Z,1018.20
2016-10-10T00:21:42.010Z,1018.22
2016-10-10T00:26:38.860Z,1018.26
2016-10-10T00:31:35.522Z,1018.27
2016-10-10T00:36:32.586Z,1018.29
2016-10-10T00:41:29.088Z,1018.26
2016-10-10T00:46:25.586Z,1018.39
2016-10-10T00:51:22.509Z,1018.30
2016-10-10T00:56:20.133Z,1018.30
2016-10-10T01:01:16.303Z,1018.18
2016-10-10T01:06:12.909Z,1018.16
2016-10-10T01:11:09.055Z,1018.22
2016-10-10T01:16:05.654Z,1018.13
2016-10-10T01:21:03.520Z,1018.17
2016-10-10T01:25:59.629Z,1018.08
2016-10-10T01:30:57.197Z,1018.04
2016-10-10T01:35:53.517Z,1018.02
2016-10-10T01:40:50.234Z,1018.00
2016-10-10T01:45:46.653Z,1017.98
2016-10-10T01:50:42.676Z,1018.03
2016-10-10T01:55:39.269Z,1018.03
2016-10-10T02:00:35.724Z,1017.98
2016-10-10T02:05:32.286Z,1018.00
2016-10-10T02:10:28.451Z,1018.05
2016-10-10T02:15:25.125Z,1018.06
2016-10-10T02:20:24.557Z,1018.04
2016-10-10T02:25:21.380Z,1018.04
2016-10-10T02:30:17.164Z,1018.00
2016-10-10T02:35:13.437Z,1018.09
2016-10-10T02:40:10.109Z,1017.96
2016-10-10T02:45:06.602Z,1018.01
2016-10-10T02:50:03.114Z,1017.95
2016-10-10T02:54:59.491Z,1017.99
2016-10-10T02:59:56.145Z,1017.89
2016-10-10T03:04:52.691Z,1017.85
2016-10-10T03:09:49.305Z,1017.79
2016-10-10T03:14:45.737Z,1017.93
2016-10-10T03:19:42.297Z,1017.89
2016-10-10T03:24:38.541Z,1017.89
2016-10-10T03:29:35.174Z,1017.89
2016-10-10T03:34:31.712Z,1017.80
2016-10-10T03:39:28.128Z,1017.90
2016-10-10T03:44:24.772Z,1017.90
2016-10-10T03:49:21.150Z,1017.92
2016-10-10T03:54:17.645Z,1017.87
2016-10-10T03:59:14.039Z,1017.85
2016-10-10T04:04:10.298Z,1017.87
2016-10-10T04:09:06.635Z,1017.85
2016-10-10T04:14:03.290Z,1017.82
2016-10-10T04:18:59.668Z,1017.79
2016-10-10T04:23:56.347Z,1017.76
2016-10-10T04:28:52.858Z,1017.82
2016-10-10T04:33:49.582Z,1017.81
2016-10-10T04:38:46.360Z,1017.75
2016-10-10T04:43:43.098Z,1017.78
2016-10-10T04:48:39.608Z,1017.82
2016-10-10T04:53:36.277Z,1017.73
2016-10-10T04:58:32.612Z,1017.88
2016-10-10T05:03:29.073Z,1017.78
2016-10-10T05:08:25.556Z,1017.80
2016-10-10T05:13:22.046Z,1017.75
2016-10-10T05:18:18.563Z,1017.75
2016-10-10T05:23:14.675Z,1017.63
2016-10-10T05:28:11.320Z,1017.71
2016-10-10T05:33:07.822Z,1017.72
2016-10-10T05:38:04.168Z,1017.73
2016-10-10T05:43:00.597Z,1017.81
2016-10-10T05:47:56.955Z,1017.82
2016-10-10T05:52:53.384Z,1017.91
2016-10-10T05:57:49.985Z,1017.88
2016-10-10T06:02:46.381Z,1017.95
2016-10-10T06:07:42.587Z,1017.95
2016-10-10T06:12:39.018Z,1017.97
2016-10-10T06:17:35.559Z,1017.95
2016-10-10T06:22:31.907Z,1018.04
2016-10-10T06:27:28.582Z,1018.12
2016-10-10T06:32:25.239Z,1018.13
2016-10-10T06:37:21.572Z,1018.05
2016-10-10T06:42:18.937Z,1018.10
2016-10-10T06:47:15.495Z,1018.08
2016-10-10T06:52:12.193Z,1018.14
2016-10-10T06:57:08.913Z,1018.13
2016-10-10T07:02:05.748Z,1018.09
2016-10-10T07:07:02.935Z,1018.14
2016-10-10T07:11:59.421Z,1018.10
2016-10-10T07:16:55.524Z,1018.09
2016-10-10T07:21:52.489Z,1018.16
2016-10-10T07:26:49.238Z,1018.18
2016-10-10T07:31:45.981Z,1018.09
2016-10-10T07:36:42.554Z,1018.14
2016-10-10T07:41:39.401Z,1018.19
2016-10-10T07:51:38.170Z,1018.30
2016-10-10T07:56:34.740Z,1018.25
2016-10-10T08:01:31.312Z,1018.19
2016-10-10T08:06:28.192Z,1018.23
2016-10-10T08:11:24.951Z,1018.21
2016-10-10T08:16:24.195Z,1018.18
2016-10-10T08:21:20.603Z,1018.15
2016-10-10T08:26:17.163Z,1018.14
2016-10-10T08:31:14.879Z,1018.18
2016-10-10T08:36:12.106Z,1018.21
2016-10-10T08:41:08.433Z,1018.21
2016-10-10T08:46:05.128Z,1018.19
2016-10-10T08:51:02.076Z,1018.21
2016-10-10T08:55:58.951Z,1018.10
2016-10-10T09:00:55.488Z,1018.16
2016-10-10T09:05:52.093Z,1018.27
2016-10-10T09:10:48.538Z,1018.19
2016-10-10T09:15:45.076Z,1018.29
2016-10-10T09:20:41.945Z,1018.18
2016-10-10T09:25:38.738Z,1018.17
2016-10-10T09:30:35.517Z,1018.18
2016-10-10T09:35:32.758Z,1018.20
2016-10-10T09:40:29.353Z,1018.16
2016-10-10T09:45:26.232Z,1018.19
2016-10-10T09:50:23.635Z,1018.20
2016-10-10T09:55:20.604Z,1018.12
2016-10-10T10:00:18.046Z,1018.07
2016-10-10T10:05:14.015Z,1018.13
2016-10-10T10:10:10.454Z,1018.02
2016-10-10T10:15:06.808Z,1018.03
2016-10-10T10:20:03.432Z,1018.08
2016-10-10T10:24:59.344Z,1018.07
2016-10-10T10:29:55.560Z,1017.97
2016-10-10T10:34:51.649Z,1017.93
2016-10-10T10:39:50.356Z,1017.91
2016-10-10T10:44:47.251Z,1017.89
2016-10-10T10:49:43.451Z,1017.80
2016-10-10T10:54:40.153Z,1017.79
2016-10-10T10:59:37.186Z,1017.67
2016-10-10T11:04:34.404Z,1017.58
2016-10-10T11:09:31.005Z,1017.52
2016-10-10T11:14:28.184Z,1017.50
2016-10-10T11:19:24.309Z,1017.47
2016-10-10T11:24:20.325Z,1017.40
2016-10-10T11:29:16.734Z,1017.36
2016-10-10T11:34:13.560Z,1017.37
2016-10-10T11:39:10.504Z,1017.35
2016-10-10T11:44:07.091Z,1017.32
2016-10-10T11:49:04.275Z,1017.22
2016-10-10T11:54:01.193Z,1017.18
2016-10-10T11:58:58.564Z,1017.19
2016-10-10T12:03:55.294Z,1017.19
2016-10-10T12:08:54.131Z,1017.09
2016-10-10T12:13:50.755Z,1017.01
2016-10-10T12:18:47.803Z,1016.95
2016-10-10T12:23:44.276Z,1016.85
2016-10-10T12:28:41.055Z,1016.82
2016-10-10T12:33:37.317Z,1016.76
2016-10-10T12:38:34.378Z,1016.76
2016-10-10T12:43:30.577Z,1016.67
2016-10-10T12:48:27.542Z,1016.59
2016-10-10T12:53:24.276Z,1016.60
2016-10-10T12:58:20.630Z,1016.60
2016-10-10T13:03:16.692Z,1016.46
2016-10-10T13:08:13.350Z,1016.42
2016-10-10T13:13:10.864Z,1016.40
2016-10-10T13:18:08.433Z,1016.39
2016-10-10T13:23:04.317Z,1016.37
2016-10-10T13:28:00.688Z,1016.41
2016-10-10T13:32:57.175Z,1016.34
2016-10-10T13:37:53.882Z,1016.42
2016-10-10T13:42:52.088Z,1016.44
2016-10-10T13:47:48.503Z,1016.43
2016-10-10T13:52:45.179Z,1016.40
2016-10-10T13:57:41.947Z,1016.44
2016-10-10T14:02:38.735Z,1016.40
2016-10-10T14:07:36.320Z,1016.33
2016-10-10T14:12:32.441Z,1016.39
2016-10-10T14:17:28.844Z,1016.27
2016-10-10T14:22:25.546Z,1016.30
2016-10-10T14:27:22.107Z,1016.33
2016-10-10T14:32:18.682Z,1016.23
2016-10-10T14:37:16.680Z,1016.24
2016-10-10T14:42:12.708Z,1016.33
2016-10-10T14:47:09.412Z,1016.18
2016-10-10T14:52:05.799Z,1016.13
2016-10-10T14:57:03.164Z,1016.14
2016-10-10T15:01:59.266Z,1016.16
2016-10-10T15:06:55.681Z,1016.26
2016-10-10T15:11:52.641Z,1016.23
2016-10-10T15:16:49.565Z,1016.19
2016-10-10T15:21:45.926Z,1016.23
2016-10-10T15:26:42.653Z,1016.21
2016-10-10T15:31:40.884Z,1016.15
2016-10-10T15:36:37.405Z,1016.12
2016-10-10T15:41:34.304Z,1016.06
2016-10-10T15:46:32.223Z,1016.11
2016-10-10T15:51:28.359Z,1016.05
2016-10-10T15:56:24.947Z,1016.05
2016-10-10T16:01:21.587Z,1016.07
2016-10-10T16:06:18.057Z,1016.06
2016-10-10T16:11:15.150Z,1016.11
2016-10-10T16:16:11.157Z,1016.14
2016-10-10T16:21:07.828Z,1016.08
2016-10-10T16:26:04.639Z,1016.16
2016-10-10T16:31:01.015Z,1016.16
2016-10-10T16:35:57.333Z,1016.21
2016-10-10T16:40:53.760Z,1016.19
2016-10-10T16:45:50.268Z,1016.12
2016-10-10T16:50:46.794Z,1016.27
2016-10-10T16:55:43.322Z,1016.24
2016-10-10T17:00:39.802Z,1016.33
2016-10-10T17:05:36.926Z,1016.37
2016-10-10T17:10:33.383Z,1016.36
2016-10-10T17:15:29.954Z,1016.35
2016-10-10T17:20:28.599Z,1016.43
2016-10-10T17:25:24.593Z,1016.48
2016-10-10T17:30:20.990Z,1016.43
2016-10-10T17:35:17.507Z,1016.40
2016-10-10T17:40:14.059Z,1016.40
2016-10-10T17:45:13.020Z,1016.38
2016-10-10T17:50:08.462Z,1016.41
2016-10-10T17:55:05.147Z,1016.40
2016-10-10T18:00:01.374Z,1016.51
2016-10-10T18:04:57.907Z,1016.49
2016-10-10T18:09:54.681Z,1016.48
2016-10-10T18:14:50.975Z,1016.52
2016-10-10T18:19:47.452Z,1016.54
2016-10-10T18:24:43.968Z,1016.55
2016-10-10T18:29:40.566Z,1016.67
2016-10-10T18:34:36.616Z,1016.59
2016-10-10T18:39:33.218Z,1016.61
2016-10-10T18:44:29.741Z,1016.49
2016-10-10T18:49:26.569Z,1016.58
2016-10-10T18:54:22.973Z,1016.51
2016-10-10T18:59:20.218Z,1016.58
2016-10-10T19:04:16.782Z,1016.53
2016-10-10T19:09:13.379Z,1016.55
2016-10-10T19:14:10.146Z,1016.46
2016-10-10T19:19:06.575Z,1016.56
2016-10-10T19:24:03.138Z,1016.46
2016-10-10T19:28:59.548Z,1016.56
2016-10-10T19:33:56.110Z,1016.46
2016-10-10T19:38:52.888Z,1016.54
2016-10-10T19:43:49.352Z,1016.61
2016-10-10T19:48:45.963Z,1016.51
2016-10-10T19:53:42.608Z,1016.51
2016-10-10T19:58:38.936Z,1016.50
2016-10-10T20:03:36.881Z,1016.52
2016-10-10T20:08:33.148Z,1016.49
2016-10-10T20:13:29.698Z,1016.49
2016-10-10T20:18:26.128Z,1016.42
2016-10-10T20:23:22.458Z,1016.50
2016-10-10T20:28:18.724Z,1016.46
2016-10-10T20:33:15.145Z,1016.48
2016-10-10T20:38:12.702Z,1016.47
2016-10-10T20:43:09.001Z,1016.46
2016-10-10T20:48:05.308Z,1016.43
2016-10-10T20:53:01.948Z,1016.52
2016-10-10T20:57:58.610Z,1016.53
2016-10-10T21:02:55.323Z,1016.48
2016-10-10T21:07:51.752Z,1016.46
2016-10-10T21:12:48.297Z,1016.51
2016-10-10T21:17:44.847Z,1016.47
2016-10-10T21:22:41.356Z,1016.47
2016-10-10T21:27:38.621Z,1016.44
2016-10-10T21:32:34.754Z,1016.37
2016-10-10T21:37:30.900Z,1016.41
2016-10-10T21:42:27.321Z,1016.43
2016-10-10T21:47:25.608Z,1016.36
2016-10-10T21:52:21.889Z,1016.35
2016-10-10T21:57:19.985Z,1016.29
2016-10-10T22:02:16.308Z,1016.24
2016-10-10T22:07:12.730Z,1016.29
2016-10-10T22:12:09.182Z,1016.38
2016-10-10T22:17:06.221Z,1016.33
2016-10-10T22:22:02.384Z,1016.24
2016-10-10T22:26:58.874Z,1016.31
2016-10-10T22:31:55.607Z,1016.27
2016-10-10T22:36:51.896Z,1016.34
2016-10-10T22:41:48.252Z,1016.36
2016-10-10T22:46:44.769Z,1016.32
2016-10-10T22:51:41.625Z,1016.29
2016-10-10T22:56:37.741Z,1016.28
2016-10-10T23:01:33.866Z,1016.22
2016-10-10T23:06:31.284Z,1016.24
2016-10-10T23:11:27.767Z,1016.22
2016-10-10T23:16:24.350Z,1016.18
2016-10-10T23:21:21.239Z,1016.23
2016-10-10T23:26:17.909Z,1016.24
2016-10-10T23:31:14.368Z,1016.15
2016-10-10T23:36:10.908Z,1016.23
2016-10-10T23:41:07.315Z,1016.20
2016-10-10T23:46:03.618Z,1016.14
2016-10-10T23:51:00.825Z,1016.17
2016-10-10T23:55:56.879Z,1016.15
